Check out our new BloomSky Weather System.

Active alerts


No alerts


Thunder radar  blitzortung!


Rain radar more information rain snow radar


Visit our other weather sites:

Template documentation
and downloads

And another site



Weather Underground History page Text

Daily Summary for July 20, 2017 Units:  English    Metric   Both
« Previous Day
Next Day »
Daily Weekly Monthly Yearly Custom
  High: Low: Average:
Temperature: 98.4 °F 77.7 °F 87.4 °F
Dew Point: 81.9 °F 72.7 °F 77.2 °F
Humidity: 96 % 49 % 74 %
Wind Speed: 10.0 mph 0.0 mph 1.2 mph
Wind Gust: 15.0 mph - -
Wind:- - South
Pressure: 30.12 in 29.96 in -
Precipitation: 0.00 in    
Historical Graphs
 
 
Tabular Data for July 20, 2017
Time Temperature Dew Point Pressure Wind Wind Speed Wind Gust Humidity Rainfall Rate (Hourly)
00:01 83.3 °F 77.9 °F 30.06 in South 2.0 mph 3.0 mph 84 % 0.00 in
00:06 83.1 °F 78.1 °F 30.06 in Calm   3.0 mph 85 % 0.00 in
00:11 82.9 °F 77.9 °F 30.06 in Calm   3.0 mph 85 % 0.00 in
00:16 82.9 °F 77.9 °F 30.06 in SSE 1.0 mph 3.0 mph 85 % 0.00 in
00:21 82.8 °F 77.7 °F 30.06 in South 1.0 mph 3.0 mph 85 % 0.00 in
00:26 82.8 °F 78.1 °F 30.06 in SSE 1.0 mph 3.0 mph 86 % 0.00 in
00:31 82.8 °F 78.1 °F 30.06 in South 1.0 mph 3.0 mph 86 % 0.00 in
00:36 82.8 °F 78.1 °F 30.06 in SSW 2.0 mph 3.0 mph 86 % 0.00 in
00:37 82.8 °F 78.1 °F 30.06 in Calm   3.0 mph 86 % 0.00 in
00:42 82.6 °F 77.9 °F 30.06 in SSW 2.0 mph 3.0 mph 86 % 0.00 in
00:47 82.6 °F 77.9 °F 30.06 in SSE 2.0 mph 3.0 mph 86 % 0.00 in
00:52 82.4 °F 77.7 °F 30.06 in SSE 2.0 mph 3.0 mph 86 % 0.00 in
00:57 82.2 °F 77.9 °F 30.06 in Calm   3.0 mph 87 % 0.00 in
01:02 82.2 °F 77.9 °F 30.06 in Calm   3.0 mph 87 % 0.00 in
01:07 82.2 °F 77.9 °F 30.06 in SSE 1.0 mph 3.0 mph 87 % 0.00 in
01:12 82.0 °F 77.7 °F 30.06 in Calm   3.0 mph 87 % 0.00 in
01:17 82.0 °F 77.7 °F 30.06 in SSE 1.0 mph 3.0 mph 87 % 0.00 in
01:22 81.9 °F 77.5 °F 30.07 in South 1.0 mph 3.0 mph 87 % 0.00 in
01:27 81.7 °F 77.7 °F 30.07 in Calm   2.0 mph 88 % 0.00 in
01:32 81.7 °F 77.7 °F 30.07 in Calm   2.0 mph 88 % 0.00 in
01:37 81.7 °F 77.7 °F 30.07 in Calm   1.0 mph 88 % 0.00 in
01:42 81.7 °F 77.7 °F 30.06 in Calm   1.0 mph 88 % 0.00 in
01:47 81.5 °F 77.5 °F 30.07 in Calm   1.0 mph 88 % 0.00 in
01:52 81.3 °F 77.4 °F 30.06 in Calm   1.0 mph 88 % 0.00 in
01:57 81.1 °F 77.5 °F 30.06 in Calm   1.0 mph 89 % 0.00 in
02:02 81.0 °F 77.4 °F 30.07 in Calm     89 % 0.00 in
02:07 80.8 °F 77.2 °F 30.07 in Calm     89 % 0.00 in
02:12 80.4 °F 76.8 °F 30.07 in Calm     89 % 0.00 in
02:17 80.2 °F 77.0 °F 30.07 in Calm     90 % 0.00 in
02:22 80.2 °F 77.0 °F 30.06 in Calm     90 % 0.00 in
02:27 80.1 °F 76.8 °F 30.06 in Calm     90 % 0.00 in
02:32 79.9 °F 77.0 °F 30.06 in Calm     91 % 0.00 in
02:37 79.9 °F 77.0 °F 30.06 in Calm     91 % 0.00 in
02:42 79.5 °F 76.6 °F 30.06 in Calm     91 % 0.00 in
02:47 79.5 °F 77.0 °F 30.06 in Calm     92 % 0.00 in
02:52 79.5 °F 77.0 °F 30.06 in Calm     92 % 0.00 in
02:57 79.5 °F 77.0 °F 30.06 in Calm     92 % 0.00 in
03:02 79.3 °F 76.8 °F 30.07 in Calm     92 % 0.00 in
03:07 79.3 °F 76.8 °F 30.07 in Calm     92 % 0.00 in
03:12 79.3 °F 77.2 °F 30.07 in Calm     93 % 0.00 in
03:17 79.3 °F 77.2 °F 30.07 in Calm     93 % 0.00 in
03:22 79.3 °F 77.2 °F 30.07 in Calm     93 % 0.00 in
03:27 79.2 °F 77.0 °F 30.07 in Calm     93 % 0.00 in
03:32 79.2 °F 77.0 °F 30.07 in Calm     93 % 0.00 in
03:37 79.0 °F 76.8 °F 30.07 in Calm     93 % 0.00 in
03:42 79.0 °F 76.8 °F 30.07 in Calm     93 % 0.00 in
03:47 78.8 °F 76.6 °F 30.07 in Calm     93 % 0.00 in
03:52 78.6 °F 76.5 °F 30.07 in Calm     93 % 0.00 in
03:57 78.6 °F 76.8 °F 30.07 in Calm     94 % 0.00 in
04:03 78.6 °F 76.8 °F 30.07 in Calm     94 % 0.00 in
04:08 78.6 °F 76.8 °F 30.07 in Calm     94 % 0.00 in
04:13 78.6 °F 76.8 °F 30.07 in Calm     94 % 0.00 in
04:18 78.4 °F 76.6 °F 30.07 in Calm     94 % 0.00 in
04:23 78.6 °F 76.8 °F 30.07 in Calm     94 % 0.00 in
04:28 78.6 °F 76.8 °F 30.07 in Calm     94 % 0.00 in
04:33 78.4 °F 76.6 °F 30.07 in Calm     94 % 0.00 in
04:38 78.4 °F 76.8 °F 30.07 in Calm     95 % 0.00 in
04:43 78.4 °F 76.6 °F 30.07 in Calm     94 % 0.00 in
04:48 78.3 °F 76.6 °F 30.07 in Calm     95 % 0.00 in
04:53 78.3 °F 76.6 °F 30.07 in Calm     95 % 0.00 in
04:58 78.3 °F 76.6 °F 30.08 in Calm     95 % 0.00 in
05:03 78.3 °F 76.6 °F 30.08 in Calm     95 % 0.00 in
05:08 78.3 °F 76.6 °F 30.08 in Calm     95 % 0.00 in
05:13 78.3 °F 76.6 °F 30.08 in Calm     95 % 0.00 in
05:18 78.1 °F 76.5 °F 30.08 in Calm     95 % 0.00 in
05:23 78.1 °F 76.5 °F 30.08 in Calm     95 % 0.00 in
05:28 78.1 °F 76.5 °F 30.08 in Calm     95 % 0.00 in
05:33 78.1 °F 76.5 °F 30.08 in Calm     95 % 0.00 in
05:38 78.1 °F 76.5 °F 30.08 in Calm     95 % 0.00 in
05:43 78.1 °F 76.5 °F 30.08 in Calm     95 % 0.00 in
05:48 78.1 °F 76.5 °F 30.09 in Calm     95 % 0.00 in
05:53 78.1 °F 76.5 °F 30.08 in Calm     95 % 0.00 in
05:58 78.1 °F 76.8 °F 30.09 in Calm     96 % 0.00 in
06:03 78.1 °F 76.8 °F 30.09 in Calm     96 % 0.00 in
06:08 78.1 °F 76.8 °F 30.09 in Calm     96 % 0.00 in
06:13 78.1 °F 76.8 °F 30.09 in Calm     96 % 0.00 in
06:18 78.1 °F 76.8 °F 30.09 in Calm     96 % 0.00 in
06:23 78.1 °F 76.8 °F 30.09 in Calm     96 % 0.00 in
06:28 78.1 °F 76.8 °F 30.10 in Calm     96 % 0.00 in
06:33 77.9 °F 76.3 °F 30.10 in Calm     95 % 0.00 in
06:38 77.7 °F 76.1 °F 30.09 in Calm     95 % 0.00 in
06:43 77.9 °F 76.6 °F 30.10 in Calm     96 % 0.00 in
06:48 78.1 °F 76.8 °F 30.10 in Calm     96 % 0.00 in
06:53 78.1 °F 76.8 °F 30.10 in Calm     96 % 0.00 in
06:58 78.1 °F 76.8 °F 30.10 in Calm     96 % 0.00 in
07:03 78.1 °F 76.8 °F 30.10 in Calm     96 % 0.00 in
07:08 78.3 °F 77.0 °F 30.10 in Calm     96 % 0.00 in
07:13 78.3 °F 77.0 °F 30.10 in Calm     96 % 0.00 in
07:18 78.6 °F 77.4 °F 30.10 in Calm     96 % 0.00 in
07:23 79.3 °F 78.1 °F 30.10 in Calm     96 % 0.00 in
07:28 79.9 °F 78.6 °F 30.11 in Calm     96 % 0.00 in
07:33 80.8 °F 79.5 °F 30.11 in Calm     96 % 0.00 in
07:38 81.5 °F 79.9 °F 30.11 in Calm     95 % 0.00 in
07:43 81.9 °F 79.9 °F 30.11 in Calm     94 % 0.00 in
07:48 82.2 °F 80.1 °F 30.11 in Calm     93 % 0.00 in
07:53 82.8 °F 79.9 °F 30.11 in Calm     91 % 0.00 in
07:58 83.1 °F 79.9 °F 30.11 in Calm   1.0 mph 90 % 0.00 in
08:03 83.7 °F 80.1 °F 30.12 in WSW 1.0 mph 2.0 mph 89 % 0.00 in
08:08 83.8 °F 80.2 °F 30.12 in West 1.0 mph 3.0 mph 89 % 0.00 in
08:13 84.0 °F 80.1 °F 30.12 in WNW 2.0 mph 3.0 mph 88 % 0.00 in
08:18 84.4 °F 80.4 °F 30.12 in Calm   4.0 mph 88 % 0.00 in
08:23 84.6 °F 79.9 °F 30.12 in Calm   4.0 mph 86 % 0.00 in
08:28 84.9 °F 80.2 °F 30.12 in WNW 1.0 mph 4.0 mph 86 % 0.00 in
08:33 85.5 °F 80.8 °F 30.12 in Calm   3.0 mph 86 % 0.00 in
08:38 86.0 °F 80.6 °F 30.12 in Calm   4.0 mph 84 % 0.00 in
08:43 86.5 °F 81.1 °F 30.12 in Calm   4.0 mph 84 % 0.00 in
08:49 87.3 °F 81.9 °F 30.12 in SE 1.0 mph 4.0 mph 84 % 0.00 in
08:54 88.0 °F 81.9 °F 30.12 in SSW 1.0 mph 3.0 mph 82 % 0.00 in
08:59 88.0 °F 80.6 °F 30.12 in SSE 4.0 mph 5.0 mph 79 % 0.00 in
09:04 88.0 °F 81.0 °F 30.12 in Calm   5.0 mph 80 % 0.00 in
09:08 87.8 °F 80.4 °F 30.12 in West 4.0 mph 5.0 mph 79 % 0.00 in
09:13 87.6 °F 80.6 °F 30.12 in Calm   5.0 mph 80 % 0.00 in
09:18 88.2 °F 81.1 °F 30.12 in West 2.0 mph 5.0 mph 80 % 0.00 in
09:23 88.3 °F 81.3 °F 30.12 in SSE 2.0 mph 5.0 mph 80 % 0.00 in
09:28 89.1 °F 81.7 °F 30.12 in Calm   5.0 mph 79 % 0.00 in
09:33 89.4 °F 80.8 °F 30.12 in NNW 2.0 mph 5.0 mph 76 % 0.00 in
09:38 89.2 °F 80.6 °F 30.12 in West 2.0 mph 4.0 mph 76 % 0.00 in
09:43 88.5 °F 80.1 °F 30.12 in West 3.0 mph 5.0 mph 76 % 0.00 in
09:48 88.3 °F 80.2 °F 30.12 in Calm   6.0 mph 77 % 0.00 in
09:53 88.5 °F 80.1 °F 30.12 in Calm   6.0 mph 76 % 0.00 in
09:58 89.2 °F 81.1 °F 30.11 in South 1.0 mph 7.0 mph 77 % 0.00 in
10:03 89.4 °F 80.1 °F 30.11 in Calm   7.0 mph 74 % 0.00 in
10:08 90.0 °F 81.0 °F 30.12 in SSW 2.0 mph 7.0 mph 75 % 0.00 in
10:13 90.1 °F 80.8 °F 30.12 in SW 2.0 mph 6.0 mph 74 % 0.00 in
10:18 90.5 °F 81.5 °F 30.12 in SSW 3.0 mph 8.0 mph 75 % 0.00 in
10:23 90.9 °F 80.1 °F 30.11 in Calm   8.0 mph 71 % 0.00 in
10:28 90.7 °F 80.4 °F 30.11 in NNW 1.0 mph 8.0 mph 72 % 0.00 in
10:33 91.0 °F 80.2 °F 30.11 in SSE 1.0 mph 6.0 mph 71 % 0.00 in
10:38 91.6 °F 80.8 °F 30.11 in Calm   6.0 mph 71 % 0.00 in
10:43 92.1 °F 81.3 °F 30.11 in Calm   5.0 mph 71 % 0.00 in
10:48 92.1 °F 80.1 °F 30.11 in Calm   5.0 mph 68 % 0.00 in
10:53 91.8 °F 79.2 °F 30.11 in NW 1.0 mph 5.0 mph 67 % 0.00 in
10:58 91.2 °F 78.8 °F 30.11 in NW 2.0 mph 6.0 mph 67 % 0.00 in
11:03 91.8 °F 80.1 °F 30.11 in NW 1.0 mph 6.0 mph 69 % 0.00 in
11:08 91.6 °F 78.1 °F 30.10 in WNW 3.0 mph 6.0 mph 65 % 0.00 in
11:13 91.8 °F 78.8 °F 30.10 in West 2.0 mph 7.0 mph 66 % 0.00 in
11:18 91.8 °F 78.3 °F 30.10 in Calm   7.0 mph 65 % 0.00 in
11:23 92.5 °F 79.9 °F 30.10 in South 1.0 mph 7.0 mph 67 % 0.00 in
11:28 92.8 °F 77.4 °F 30.10 in West 1.0 mph 5.0 mph 61 % 0.00 in
11:33 92.8 °F 77.4 °F 30.10 in NW 3.0 mph 5.0 mph 61 % 0.00 in
11:38 92.3 °F 77.4 °F 30.10 in NNW 2.0 mph 7.0 mph 62 % 0.00 in
11:43 92.3 °F 76.8 °F 30.10 in NW 3.0 mph 7.0 mph 61 % 0.00 in
11:48 92.7 °F 77.7 °F 30.10 in Calm   7.0 mph 62 % 0.00 in
11:53 92.5 °F 76.6 °F 30.10 in North 5.0 mph 7.0 mph 60 % 0.00 in
11:58 92.7 °F 78.3 °F 30.09 in Calm   7.0 mph 63 % 0.00 in
12:03 93.9 °F 79.0 °F 30.09 in ENE 1.0 mph 6.0 mph 62 % 0.00 in
12:08 95.0 °F 79.9 °F 30.09 in SSW 2.0 mph 6.0 mph 62 % 0.00 in
12:14 95.2 °F 76.5 °F 30.09 in South 2.0 mph 5.0 mph 55 % 0.00 in
12:19 95.2 °F 77.5 °F 30.09 in South 3.0 mph 5.0 mph 57 % 0.00 in
12:24 95.4 °F 78.3 °F 30.08 in WSW 1.0 mph 5.0 mph 58 % 0.00 in
12:29 95.0 °F 77.4 °F 30.08 in Calm   4.0 mph 57 % 0.00 in
12:34 94.5 °F 76.8 °F 30.08 in NNW 1.0 mph 6.0 mph 57 % 0.00 in
12:39 94.6 °F 77.5 °F 30.08 in ENE 1.0 mph 6.0 mph 58 % 0.00 in
12:44 95.0 °F 79.9 °F 30.07 in SE 1.0 mph 6.0 mph 62 % 0.00 in
12:49 95.0 °F 76.8 °F 30.07 in Calm   6.0 mph 56 % 0.00 in
12:54 94.6 °F 78.1 °F 30.07 in Calm   5.0 mph 59 % 0.00 in
12:59 95.0 °F 76.8 °F 30.07 in South 2.0 mph 6.0 mph 56 % 0.00 in
13:04 95.5 °F 75.7 °F 30.07 in Calm   6.0 mph 53 % 0.00 in
13:09 95.9 °F 77.2 °F 30.07 in NE 1.0 mph 6.0 mph 55 % 0.00 in
13:14 95.7 °F 77.5 °F 30.07 in SSW 2.0 mph 4.0 mph 56 % 0.00 in
13:19 96.3 °F 77.5 °F 30.07 in SSW 1.0 mph 5.0 mph 55 % 0.00 in
13:24 96.4 °F 78.1 °F 30.07 in SW 2.0 mph 5.0 mph 56 % 0.00 in
13:29 97.2 °F 77.2 °F 30.07 in SSE 1.0 mph 5.0 mph 53 % 0.00 in
13:34 97.3 °F 78.4 °F 30.07 in Calm   5.0 mph 55 % 0.00 in
13:39 97.9 °F 80.1 °F 30.06 in SSW 1.0 mph 5.0 mph 57 % 0.00 in
13:44 97.5 °F 77.0 °F 30.06 in Calm   5.0 mph 52 % 0.00 in
13:49 97.3 °F 77.9 °F 30.06 in Calm   5.0 mph 54 % 0.00 in
13:54 97.9 °F 76.1 °F 30.06 in Calm   5.0 mph 50 % 0.00 in
13:59 98.4 °F 78.3 °F 30.05 in SSW 3.0 mph 4.0 mph 53 % 0.00 in
14:04 98.1 °F 77.4 °F 30.05 in SW 1.0 mph 4.0 mph 52 % 0.00 in
14:09 97.9 °F 75.4 °F 30.05 in NNW 1.0 mph 5.0 mph 49 % 0.00 in
14:15 97.9 °F 77.2 °F 30.05 in West 2.0 mph 5.0 mph 52 % 0.00 in
14:20 97.7 °F 75.9 °F 30.05 in North 1.0 mph 5.0 mph 50 % 0.00 in
14:25 97.2 °F 77.2 °F 30.04 in NNE 1.0 mph 3.0 mph 53 % 0.00 in
14:30 97.3 °F 75.0 °F 30.04 in Calm   4.0 mph 49 % 0.00 in
14:35 97.0 °F 74.7 °F 30.04 in WSW 1.0 mph 4.0 mph 49 % 0.00 in
14:40 97.0 °F 75.9 °F 30.04 in Calm   4.0 mph 51 % 0.00 in
14:45 96.1 °F 73.8 °F 30.04 in ESE 5.0 mph 5.0 mph 49 % 0.00 in
14:50 95.2 °F 73.6 °F 30.03 in Calm   7.0 mph 50 % 0.00 in
14:55 94.8 °F 74.5 °F 30.03 in South 3.0 mph 7.0 mph 52 % 0.00 in
15:00 95.2 °F 75.9 °F 30.03 in Calm   7.0 mph 54 % 0.00 in
15:05 95.9 °F 75.4 °F 30.03 in NNE 1.0 mph 5.0 mph 52 % 0.00 in
15:10 96.6 °F 75.6 °F 30.03 in WNW 1.0 mph 5.0 mph 51 % 0.00 in
15:15 97.0 °F 76.5 °F 30.03 in SE 3.0 mph 5.0 mph 52 % 0.00 in
15:20 97.0 °F 75.9 °F 30.03 in SE 1.0 mph 5.0 mph 51 % 0.00 in
15:25 97.0 °F 75.9 °F 30.02 in ENE 1.0 mph 5.0 mph 51 % 0.00 in
15:30 96.6 °F 74.8 °F 30.02 in NW 1.0 mph 5.0 mph 50 % 0.00 in
15:35 96.4 °F 75.9 °F 30.02 in East 2.0 mph 5.0 mph 52 % 0.00 in
15:40 96.6 °F 75.6 °F 30.02 in SSE 2.0 mph 5.0 mph 51 % 0.00 in
15:45 96.4 °F 77.0 °F 30.01 in South 5.0 mph 7.0 mph 54 % 0.00 in
15:50 96.6 °F 76.1 °F 30.01 in SE 1.0 mph 7.0 mph 52 % 0.00 in
15:55 96.6 °F 75.6 °F 30.01 in Calm   7.0 mph 51 % 0.00 in
16:00 97.0 °F 77.0 °F 30.01 in Calm   6.0 mph 53 % 0.00 in
16:05 97.3 °F 76.1 °F 30.00 in Calm   5.0 mph 51 % 0.00 in
16:10 97.7 °F 75.9 °F 30.00 in NW 2.0 mph 5.0 mph 50 % 0.00 in
16:15 97.5 °F 75.7 °F 30.00 in SSW 2.0 mph 7.0 mph 50 % 0.00 in
16:20 97.0 °F 75.2 °F 30.00 in ENE 1.0 mph 7.0 mph 50 % 0.00 in
16:25 96.4 °F 75.9 °F 30.00 in SE 2.0 mph 7.0 mph 52 % 0.00 in
16:30 96.6 °F 76.6 °F 30.00 in ENE 2.0 mph 7.0 mph 53 % 0.00 in
16:35 96.3 °F 76.3 °F 29.99 in East 1.0 mph 8.0 mph 53 % 0.00 in
16:40 96.6 °F 77.2 °F 29.99 in Calm   8.0 mph 54 % 0.00 in
16:45 97.0 °F 76.5 °F 29.99 in West 4.0 mph 8.0 mph 52 % 0.00 in
16:50 97.3 °F 77.9 °F 29.99 in Calm   5.0 mph 54 % 0.00 in
16:55 97.5 °F 75.7 °F 29.99 in ENE 3.0 mph 5.0 mph 50 % 0.00 in
17:00 96.8 °F 75.7 °F 29.98 in ESE 1.0 mph 4.0 mph 51 % 0.00 in
17:05 95.9 °F 74.8 °F 29.98 in ESE 2.0 mph 5.0 mph 51 % 0.00 in
17:10 95.4 °F 75.6 °F 29.98 in Calm   5.0 mph 53 % 0.00 in
17:15 95.9 °F 75.4 °F 29.98 in Calm   5.0 mph 52 % 0.00 in
17:20 96.6 °F 75.6 °F 29.99 in East 3.0 mph 5.0 mph 51 % 0.00 in
17:25 96.4 °F 75.9 °F 29.99 in ENE 2.0 mph 4.0 mph 52 % 0.00 in
17:30 95.7 °F 75.2 °F 29.98 in Calm   4.0 mph 52 % 0.00 in
17:35 95.4 °F 75.0 °F 29.98 in SSE 2.0 mph 4.0 mph 52 % 0.00 in
17:40 94.8 °F 74.5 °F 29.98 in Calm   4.0 mph 52 % 0.00 in
17:45 94.8 °F 73.9 °F 29.98 in SSE 2.0 mph 5.0 mph 51 % 0.00 in
17:50 94.8 °F 73.2 °F 29.97 in NW 1.0 mph 5.0 mph 50 % 0.00 in
17:55 95.4 °F 73.8 °F 29.97 in SE 3.0 mph 5.0 mph 50 % 0.00 in
18:00 95.5 °F 74.5 °F 29.97 in SE 2.0 mph 6.0 mph 51 % 0.00 in
18:02 95.5 °F 75.0 °F 29.97 in SE 1.0 mph 6.0 mph 52 % 0.00 in
18:07 96.1 °F 75.0 °F 29.96 in SE 2.0 mph 6.0 mph 51 % 0.00 in
18:12 96.3 °F 75.2 °F 29.97 in NW 2.0 mph 6.0 mph 51 % 0.00 in
18:17 96.4 °F 74.8 °F 29.96 in East 3.0 mph 4.0 mph 50 % 0.00 in
18:22 96.1 °F 75.0 °F 29.96 in NNW 1.0 mph 5.0 mph 51 % 0.00 in
18:27 96.1 °F 76.1 °F 29.96 in Calm   6.0 mph 53 % 0.00 in
18:32 95.7 °F 75.2 °F 29.96 in SSE 3.0 mph 6.0 mph 52 % 0.00 in
18:37 95.7 °F 75.2 °F 29.96 in ESE 1.0 mph 6.0 mph 52 % 0.00 in
18:42 95.4 °F 75.0 °F 29.97 in ESE 2.0 mph 7.0 mph 52 % 0.00 in
18:47 94.8 °F 75.0 °F 29.97 in Calm   7.0 mph 53 % 0.00 in
18:52 94.6 °F 75.9 °F 29.97 in East 3.0 mph 7.0 mph 55 % 0.00 in
18:57 94.3 °F 75.6 °F 29.97 in SE 4.0 mph 5.0 mph 55 % 0.00 in
19:02 93.9 °F 75.7 °F 29.97 in East 2.0 mph 7.0 mph 56 % 0.00 in
19:07 93.7 °F 76.3 °F 29.97 in SSE 1.0 mph 7.0 mph 57 % 0.00 in
19:12 93.7 °F 75.7 °F 29.96 in ENE 1.0 mph 7.0 mph 56 % 0.00 in
19:17 93.7 °F 75.7 °F 29.96 in East 2.0 mph 6.0 mph 56 % 0.00 in
19:22 93.7 °F 75.7 °F 29.96 in ESE 4.0 mph 6.0 mph 56 % 0.00 in
19:27 93.6 °F 76.6 °F 29.96 in ESE 3.0 mph 6.0 mph 58 % 0.00 in
19:32 93.2 °F 77.2 °F 29.97 in ESE 5.0 mph 6.0 mph 60 % 0.00 in
19:37 93.0 °F 77.5 °F 29.97 in East 4.0 mph 7.0 mph 61 % 0.00 in
19:42 92.7 °F 77.7 °F 29.96 in SSE 9.0 mph 9.0 mph 62 % 0.00 in
19:47 91.6 °F 78.6 °F 29.97 in SE 10.0 mph 13.0 mph 66 % 0.00 in
19:52 89.4 °F 76.1 °F 29.98 in SSE 9.0 mph 13.0 mph 65 % 0.00 in
19:57 88.2 °F 74.8 °F 29.97 in South 3.0 mph 15.0 mph 65 % 0.00 in
20:02 87.4 °F 73.8 °F 29.97 in SSE 3.0 mph 15.0 mph 64 % 0.00 in
20:07 87.1 °F 73.4 °F 29.98 in SSW 7.0 mph 15.0 mph 64 % 0.00 in
20:12 86.4 °F 73.2 °F 29.98 in SSW 4.0 mph 13.0 mph 65 % 0.00 in
20:17 85.8 °F 72.7 °F 29.98 in SSW 2.0 mph 10.0 mph 65 % 0.00 in
20:22 85.6 °F 73.4 °F 29.98 in SSW 4.0 mph 10.0 mph 67 % 0.00 in
20:27 85.5 °F 73.8 °F 29.98 in South 6.0 mph 9.0 mph 68 % 0.00 in
20:32 85.3 °F 73.9 °F 29.98 in SSE 1.0 mph 9.0 mph 69 % 0.00 in
20:37 85.3 °F 74.3 °F 29.98 in SSW 4.0 mph 9.0 mph 70 % 0.00 in
20:42 84.9 °F 74.1 °F 29.98 in South 2.0 mph 8.0 mph 70 % 0.00 in
20:47 84.7 °F 74.7 °F 29.98 in SSE 2.0 mph 6.0 mph 72 % 0.00 in
20:52 84.7 °F 75.2 °F 29.98 in ESE 2.0 mph 5.0 mph 73 % 0.00 in
20:57 84.6 °F 75.4 °F 29.98 in South 2.0 mph 4.0 mph 74 % 0.00 in
21:02 84.4 °F 75.6 °F 29.98 in Calm   4.0 mph 75 % 0.00 in
21:07 84.4 °F 75.9 °F 29.99 in SSE 1.0 mph 5.0 mph 76 % 0.00 in
21:12 84.4 °F 76.5 °F 29.99 in South 2.0 mph 5.0 mph 77 % 0.00 in
21:17 84.4 °F 76.5 °F 29.99 in ESE 1.0 mph 5.0 mph 77 % 0.00 in
21:22 84.4 °F 76.8 °F 29.99 in SSE 4.0 mph 4.0 mph 78 % 0.00 in
21:27 84.4 °F 76.8 °F 29.99 in SSW 1.0 mph 6.0 mph 78 % 0.00 in
21:32 84.4 °F 77.2 °F 29.99 in SSW 3.0 mph 6.0 mph 79 % 0.00 in
21:37 84.4 °F 77.2 °F 29.99 in South 2.0 mph 6.0 mph 79 % 0.00 in
21:42 84.4 °F 77.2 °F 29.99 in South 2.0 mph 5.0 mph 79 % 0.00 in
21:47 84.4 °F 77.2 °F 29.99 in SSE 3.0 mph 5.0 mph 79 % 0.00 in
21:52 84.4 °F 77.5 °F 30.00 in South 3.0 mph 4.0 mph 80 % 0.00 in
21:57 84.6 °F 77.4 °F 30.00 in SSE 3.0 mph 4.0 mph 79 % 0.00 in
22:02 84.6 °F 77.4 °F 30.00 in South 3.0 mph 5.0 mph 79 % 0.00 in
22:07 84.6 °F 77.4 °F 30.00 in South 4.0 mph 5.0 mph 79 % 0.00 in
22:12 84.6 °F 77.4 °F 30.00 in South 3.0 mph 6.0 mph 79 % 0.00 in
22:17 84.4 °F 77.2 °F 30.00 in South 4.0 mph 6.0 mph 79 % 0.00 in
22:22 84.4 °F 77.2 °F 30.01 in SE 5.0 mph 6.0 mph 79 % 0.00 in
22:27 84.4 °F 77.2 °F 30.01 in SSW 1.0 mph 6.0 mph 79 % 0.00 in
22:32 84.4 °F 76.8 °F 30.01 in SE 2.0 mph 6.0 mph 78 % 0.00 in
22:37 84.4 °F 77.2 °F 30.01 in SE 2.0 mph 5.0 mph 79 % 0.00 in
22:43 84.4 °F 77.2 °F 30.01 in South 2.0 mph 4.0 mph 79 % 0.00 in
22:48 84.2 °F 77.0 °F 30.01 in South 3.0 mph 4.0 mph 79 % 0.00 in
22:53 84.0 °F 76.8 °F 30.01 in SSW 1.0 mph 4.0 mph 79 % 0.00 in
22:58 83.8 °F 76.6 °F 30.01 in SE 1.0 mph 3.0 mph 79 % 0.00 in
23:03 83.8 °F 76.6 °F 30.02 in SSE 1.0 mph 3.0 mph 79 % 0.00 in
23:08 83.7 °F 76.5 °F 30.01 in SSE 1.0 mph 3.0 mph 79 % 0.00 in
23:13 83.7 °F 76.5 °F 30.01 in SSW 1.0 mph 3.0 mph 79 % 0.00 in
23:14 83.7 °F 76.5 °F 30.01 in South 2.0 mph 3.0 mph 79 % 0.00 in
23:19 83.5 °F 76.3 °F 30.01 in Calm   3.0 mph 79 % 0.00 in
23:24 83.5 °F 76.6 °F 30.01 in South 1.0 mph 3.0 mph 80 % 0.00 in
23:29 83.1 °F 76.3 °F 30.01 in South 2.0 mph 3.0 mph 80 % 0.00 in
23:34 83.1 °F 76.3 °F 30.01 in South 2.0 mph 2.0 mph 80 % 0.00 in
23:39 82.9 °F 76.5 °F 30.01 in SSE 2.0 mph 2.0 mph 81 % 0.00 in
23:44 82.9 °F 76.5 °F 30.01 in South 2.0 mph 3.0 mph 81 % 0.00 in
23:49 82.9 °F 76.5 °F 30.01 in Calm   3.0 mph 81 % 0.00 in
23:54 82.8 °F 76.3 °F 30.01 in South 1.0 mph 3.0 mph 81 % 0.00 in
23:59 82.8 °F 76.3 °F 30.01 in Calm   3.0 mph 81 % 0.00 in
Spring, Texas: Villages of Bridgestone
Compliments of Weather Underground - 2.75 mb

Script developed by  Jim McMurry - jmcmurry@mwt.net Adapted for the template by  Wim van der Kuil - Leuven-Template.eu

You find our weather info also at:

UK Metoffice

WeatherCloud

Weather Underground

Mid-South Weather Network

AWEKAS

Citizen Weather Observer Program (CWOP)

HAMweather, WeatherForYou, PWS Weather

Equipment we use:

Weather-station
Davis Vantage Vue

Weather-program
Meteohub

Weather-server
Debian 7.9 x86 (Guest)

Provider
DreamHost

Davis Vantage Vue

Meteohub

Debian 7.9 x86 (Guest)

DreamHost